createdAt,value
2022-08-20T00:02:10.634Z,99.90
2022-08-20T00:04:39.509Z,99.90
2022-08-20T00:07:07.348Z,99.90
2022-08-20T00:09:36.754Z,99.90
2022-08-20T00:12:07.900Z,99.90
2022-08-20T00:14:35.569Z,99.90
2022-08-20T00:17:03.938Z,99.90
2022-08-20T00:19:31.624Z,99.90
2022-08-20T00:21:58.996Z,99.90
2022-08-20T00:24:26.519Z,99.90
2022-08-20T00:26:53.888Z,99.90
2022-08-20T00:29:22.407Z,99.90
2022-08-20T00:31:50.559Z,99.90
2022-08-20T00:34:18.252Z,99.90
2022-08-20T00:36:45.721Z,99.90
2022-08-20T00:39:13.093Z,99.90
2022-08-20T00:41:40.552Z,99.90
2022-08-20T00:44:14.227Z,99.90
2022-08-20T00:46:42.484Z,99.90
2022-08-20T00:49:14.182Z,99.90
2022-08-20T00:51:43.794Z,99.90
2022-08-20T00:54:14.981Z,99.90
2022-08-20T00:56:44.041Z,99.90
2022-08-20T00:59:15.596Z,99.90
2022-08-20T01:01:55.145Z,99.90
2022-08-20T01:04:25.020Z,99.90
2022-08-20T01:06:52.351Z,99.90
2022-08-20T01:09:50.055Z,99.90
2022-08-20T01:12:07.979Z,99.90
2022-08-20T01:14:35.358Z,99.90
2022-08-20T01:17:05.175Z,99.90
2022-08-20T01:19:35.835Z,99.90
2022-08-20T01:22:23.809Z,99.90
2022-08-20T01:24:54.041Z,99.90
2022-08-20T01:27:22.764Z,99.90
2022-08-20T01:29:52.061Z,99.90
2022-08-20T01:32:19.493Z,99.90
2022-08-20T01:34:46.943Z,99.90
2022-08-20T01:37:14.299Z,99.90
2022-08-20T01:39:41.748Z,99.90
2022-08-20T01:42:20.411Z,99.90
2022-08-20T01:44:47.802Z,99.90
2022-08-20T01:47:17.508Z,99.90
2022-08-20T01:49:47.025Z,99.90
2022-08-20T01:52:17.895Z,99.90
2022-08-20T01:54:46.657Z,99.90
2022-08-20T01:57:15.599Z,99.90
2022-08-20T01:59:43.236Z,99.90
2022-08-20T02:02:11.574Z,99.90
2022-08-20T02:04:40.259Z,99.90
2022-08-20T02:07:12.386Z,99.90
2022-08-20T02:09:40.028Z,99.90
2022-08-20T02:12:08.814Z,99.90
2022-08-20T02:14:39.653Z,99.90
2022-08-20T02:17:07.079Z,99.90
2022-08-20T02:19:49.027Z,99.90
2022-08-20T02:22:29.331Z,99.90
2022-08-20T02:24:57.195Z,99.90
2022-08-20T02:27:24.598Z,99.90
2022-08-20T02:29:52.900Z,99.90
2022-08-20T02:32:32.238Z,99.90
2022-08-20T02:35:03.781Z,99.90
2022-08-20T02:37:31.270Z,99.90
2022-08-20T02:39:59.138Z,99.90
2022-08-20T02:42:26.747Z,99.90
2022-08-20T02:44:54.383Z,99.90
2022-08-20T02:47:21.856Z,99.90
2022-08-20T02:49:49.525Z,99.90
2022-08-20T02:52:16.928Z,99.90
2022-08-20T02:54:44.640Z,99.90
2022-08-20T02:57:15.981Z,99.90
2022-08-20T02:59:44.608Z,99.90
2022-08-20T03:02:12.090Z,99.90
2022-08-20T03:04:39.537Z,99.90
2022-08-20T03:07:07.426Z,99.90
2022-08-20T03:09:34.796Z,99.90
2022-08-20T03:12:02.893Z,99.90
2022-08-20T03:14:30.424Z,99.90
2022-08-20T03:16:57.744Z,99.90
2022-08-20T03:19:25.305Z,99.90
2022-08-20T03:21:52.789Z,99.90
2022-08-20T03:24:20.214Z,99.90
2022-08-20T03:26:47.721Z,99.90
2022-08-20T03:29:15.097Z,99.90
2022-08-20T03:31:42.460Z,99.90
2022-08-20T03:34:09.866Z,99.90
2022-08-20T03:36:37.219Z,99.90
2022-08-20T03:39:06.091Z,99.90
2022-08-20T03:41:33.415Z,99.90
2022-08-20T03:44:00.741Z,99.90
2022-08-20T03:46:28.835Z,99.90
2022-08-20T03:48:56.643Z,99.90
2022-08-20T03:51:31.598Z,99.90
2022-08-20T03:54:10.895Z,99.90
2022-08-20T03:56:38.325Z,99.90
2022-08-20T03:59:05.725Z,99.90
2022-08-20T04:01:44.819Z,99.90
2022-08-20T04:04:14.616Z,99.90
2022-08-20T04:06:42.648Z,99.90
2022-08-20T04:09:11.960Z,99.90
2022-08-20T04:11:40.447Z,99.90
2022-08-20T04:14:07.899Z,99.90
2022-08-20T04:16:37.805Z,99.90
2022-08-20T04:19:05.186Z,99.90
2022-08-20T04:21:33.581Z,99.90
2022-08-20T04:24:02.481Z,99.90
2022-08-20T04:26:30.367Z,99.90
2022-08-20T04:28:58.141Z,99.90
2022-08-20T04:31:25.763Z,99.90
2022-08-20T04:33:53.139Z,99.90
2022-08-20T04:36:20.481Z,99.90
2022-08-20T04:38:50.236Z,99.90
2022-08-20T04:41:22.735Z,99.90
2022-08-20T04:43:53.109Z,99.90
2022-08-20T04:46:21.014Z,99.90
2022-08-20T04:48:48.860Z,99.90
2022-08-20T04:51:18.681Z,99.90
2022-08-20T04:53:52.287Z,99.90
2022-08-20T04:56:23.865Z,99.90
2022-08-20T04:58:52.554Z,99.90
2022-08-20T05:01:20.414Z,99.90
2022-08-20T05:03:48.094Z,99.90
2022-08-20T05:06:17.498Z,99.90
2022-08-20T05:08:45.028Z,99.90
2022-08-20T05:11:34.221Z,99.90
2022-08-20T05:14:00.117Z,99.90
2022-08-20T05:16:27.585Z,99.90
2022-08-20T05:18:54.945Z,99.90
2022-08-20T05:21:22.314Z,99.90
2022-08-20T05:23:49.802Z,99.90
2022-08-20T05:26:20.252Z,99.90
2022-08-20T05:28:58.637Z,99.90
2022-08-20T05:31:31.224Z,99.90
2022-08-20T05:34:01.640Z,99.90
2022-08-20T05:36:29.032Z,99.90
2022-08-20T05:38:56.941Z,99.90
2022-08-20T05:41:29.358Z,99.90
2022-08-20T05:44:00.833Z,99.90
2022-08-20T05:46:29.288Z,99.90
2022-08-20T05:48:59.767Z,99.90
2022-08-20T05:51:28.297Z,99.90
2022-08-20T05:53:59.150Z,99.90
2022-08-20T05:56:30.651Z,99.90
2022-08-20T05:59:04.406Z,99.90
2022-08-20T06:01:32.853Z,99.90
2022-08-20T06:04:19.019Z,99.90
2022-08-20T06:06:47.332Z,99.90
2022-08-20T06:09:16.218Z,99.90
2022-08-20T06:11:43.645Z,99.90
2022-08-20T06:14:11.075Z,99.90
2022-08-20T06:16:38.590Z,99.90
2022-08-20T06:19:06.815Z,99.90
2022-08-20T06:21:39.813Z,99.90
2022-08-20T06:24:08.136Z,99.90
2022-08-20T06:26:36.031Z,99.90
2022-08-20T06:29:04.614Z,99.90
2022-08-20T06:31:32.722Z,99.90
2022-08-20T06:34:00.081Z,99.90
2022-08-20T06:36:27.745Z,99.90
2022-08-20T06:38:56.170Z,99.90
2022-08-20T06:41:23.521Z,99.90
2022-08-20T06:44:04.212Z,99.90
2022-08-20T06:46:32.265Z,99.90
2022-08-20T06:48:59.819Z,99.90
2022-08-20T06:51:27.202Z,99.90
2022-08-20T06:53:54.753Z,99.90
2022-08-20T06:56:22.154Z,99.90
2022-08-20T06:58:49.638Z,99.90
2022-08-20T07:01:26.041Z,99.90
2022-08-20T07:03:54.906Z,99.90
2022-08-20T07:06:27.178Z,99.90
2022-08-20T07:08:55.831Z,99.90
2022-08-20T07:11:27.763Z,99.90
2022-08-20T07:13:56.934Z,99.90
2022-08-20T07:16:24.655Z,99.90
2022-08-20T07:18:52.142Z,99.90
2022-08-20T07:21:19.492Z,99.90
2022-08-20T07:23:48.927Z,99.90
2022-08-20T07:26:16.762Z,99.90
2022-08-20T07:28:44.160Z,99.90
2022-08-20T07:31:31.281Z,99.90
2022-08-20T07:33:59.777Z,99.90
2022-08-20T07:36:28.214Z,99.90
2022-08-20T07:38:57.010Z,99.90
2022-08-20T07:41:24.548Z,99.90
2022-08-20T07:43:51.999Z,99.90
2022-08-20T07:46:20.789Z,99.90
2022-08-20T07:48:50.231Z,99.90
2022-08-20T07:51:19.455Z,99.90
2022-08-20T07:53:47.423Z,99.90
2022-08-20T07:56:17.166Z,99.90
2022-08-20T07:58:50.281Z,99.90
2022-08-20T08:01:25.613Z,99.90
2022-08-20T08:03:53.293Z,99.90
2022-08-20T08:06:29.082Z,99.90
2022-08-20T08:09:04.244Z,99.90
2022-08-20T08:11:33.416Z,99.90
2022-08-20T08:14:01.189Z,99.90
2022-08-20T08:16:29.095Z,99.90
2022-08-20T08:18:56.939Z,99.90
2022-08-20T08:21:25.134Z,99.90
2022-08-20T08:23:53.551Z,99.90
2022-08-20T08:26:21.821Z,99.90
2022-08-20T08:28:49.167Z,99.90
2022-08-20T08:31:16.609Z,99.90
2022-08-20T08:33:44.113Z,99.90
2022-08-20T08:36:12.596Z,99.90
2022-08-20T08:38:40.610Z,99.90
2022-08-20T08:41:13.958Z,99.90
2022-08-20T08:43:42.349Z,99.90
2022-08-20T08:46:11.330Z,99.90
2022-08-20T08:48:43.412Z,99.90
2022-08-20T08:51:12.552Z,99.90
2022-08-20T08:53:59.116Z,99.90
2022-08-20T08:56:29.767Z,99.90
2022-08-20T08:59:08.632Z,99.90
2022-08-20T09:01:56.856Z,99.90
2022-08-20T09:04:30.435Z,99.90
2022-08-20T09:06:58.763Z,99.90
2022-08-20T09:09:28.053Z,99.90
2022-08-20T09:11:56.571Z,99.90
2022-08-20T09:14:26.549Z,99.90
2022-08-20T09:16:54.080Z,99.90
2022-08-20T09:19:21.653Z,99.90
2022-08-20T09:21:49.446Z,99.90
2022-08-20T09:24:16.855Z,99.90
2022-08-20T09:26:44.455Z,99.90
2022-08-20T09:29:11.830Z,99.90
2022-08-20T09:31:40.033Z,99.90
2022-08-20T09:34:07.891Z,99.90
2022-08-20T09:36:35.454Z,99.90
2022-08-20T09:39:03.355Z,99.90
2022-08-20T09:41:34.255Z,99.90
2022-08-20T09:44:02.294Z,99.90
2022-08-20T09:46:29.810Z,99.90
2022-08-20T09:48:57.327Z,99.90
2022-08-20T09:51:24.873Z,99.90
2022-08-20T09:53:52.938Z,99.90
2022-08-20T09:56:20.335Z,99.90
2022-08-20T09:58:49.886Z,99.90
2022-08-20T10:01:18.976Z,99.90
2022-08-20T10:03:50.494Z,99.90
2022-08-20T10:06:19.848Z,99.90
2022-08-20T10:08:48.365Z,99.90
2022-08-20T10:11:16.017Z,99.90
2022-08-20T10:13:45.754Z,99.90
2022-08-20T10:16:13.368Z,99.90
2022-08-20T10:18:40.741Z,99.70
2022-08-20T10:21:12.168Z,99.70
2022-08-20T10:23:39.633Z,99.70
2022-08-20T10:26:07.719Z,98.90
2022-08-20T10:28:35.569Z,98.40
2022-08-20T10:31:05.393Z,98.70
2022-08-20T10:33:32.782Z,99.10
2022-08-20T10:36:06.235Z,99.40
2022-08-20T10:38:33.851Z,99.00
2022-08-20T10:41:01.220Z,98.40
2022-08-20T10:43:28.757Z,98.20
2022-08-20T10:45:56.086Z,98.30
2022-08-20T10:48:23.865Z,98.80
2022-08-20T10:50:51.211Z,98.70
2022-08-20T10:53:18.771Z,98.70
2022-08-20T10:55:46.592Z,98.10
2022-08-20T10:58:14.140Z,97.50
2022-08-20T11:00:41.806Z,96.30
2022-08-20T11:03:09.177Z,96.10
2022-08-20T11:05:36.616Z,96.10
2022-08-20T11:08:05.073Z,93.60
2022-08-20T11:10:34.079Z,94.00
2022-08-20T11:13:02.251Z,93.80
2022-08-20T11:15:29.891Z,94.20
2022-08-20T11:17:57.765Z,94.20
2022-08-20T11:20:26.392Z,94.10
2022-08-20T11:22:54.506Z,93.90
2022-08-20T11:25:22.112Z,93.80
2022-08-20T11:27:50.404Z,93.70
2022-08-20T11:30:24.653Z,94.00
2022-08-20T11:32:52.203Z,92.90
2022-08-20T11:38:09.249Z,90.70
2022-08-20T11:40:36.593Z,90.80
2022-08-20T11:43:14.661Z,90.90
2022-08-20T11:45:43.803Z,90.70
2022-08-20T11:48:11.180Z,90.50
2022-08-20T11:50:38.668Z,90.20
2022-08-20T11:53:06.125Z,90.10
2022-08-20T11:55:36.110Z,89.50
2022-08-20T11:58:04.282Z,90.50
2022-08-20T12:00:33.944Z,89.20
2022-08-20T12:03:04.825Z,90.20
2022-08-20T12:05:32.779Z,89.80
2022-08-20T12:08:00.971Z,89.30
2022-08-20T12:10:29.210Z,88.80
2022-08-20T12:12:57.101Z,87.40
2022-08-20T12:15:26.766Z,86.10
2022-08-20T12:17:55.144Z,86.40
2022-08-20T12:20:22.934Z,85.10
2022-08-20T12:22:50.335Z,85.70
2022-08-20T12:25:17.878Z,86.30
2022-08-20T12:27:45.469Z,86.50
2022-08-20T12:30:17.638Z,84.80
2022-08-20T12:32:45.100Z,84.40
2022-08-20T12:35:13.494Z,82.50
2022-08-20T12:37:41.297Z,81.70
2022-08-20T12:40:10.980Z,82.40
2022-08-20T12:42:38.589Z,82.10
2022-08-20T12:45:06.554Z,79.60
2022-08-20T12:47:35.535Z,78.80
2022-08-20T12:50:05.346Z,77.50
2022-08-20T12:52:32.812Z,76.70
2022-08-20T12:55:00.583Z,76.70
2022-08-20T12:57:29.565Z,76.50
2022-08-20T12:59:59.105Z,76.00
2022-08-20T13:02:26.700Z,75.70
2022-08-20T13:04:54.468Z,75.00
2022-08-20T13:07:23.091Z,75.00
2022-08-20T13:09:51.032Z,72.50
2022-08-20T13:12:18.504Z,71.90
2022-08-20T13:14:45.840Z,71.40
2022-08-20T13:17:16.833Z,73.20
2022-08-20T13:19:45.809Z,74.60
2022-08-20T13:22:13.871Z,75.00
2022-08-20T13:24:41.969Z,71.40
2022-08-20T13:27:13.527Z,71.20
2022-08-20T13:29:48.325Z,71.40
2022-08-20T13:32:15.871Z,71.00
2022-08-20T13:34:43.309Z,71.20
2022-08-20T13:37:14.760Z,70.10
2022-08-20T13:39:42.567Z,69.20
2022-08-20T13:42:10.325Z,70.80
2022-08-20T13:44:38.160Z,69.40
2022-08-20T13:47:19.254Z,69.60
2022-08-20T13:49:47.432Z,70.30
2022-08-20T13:52:16.869Z,70.00
2022-08-20T13:54:44.493Z,69.40
2022-08-20T13:57:13.487Z,69.20
2022-08-20T13:59:42.088Z,69.10
2022-08-20T14:02:11.287Z,69.90
2022-08-20T14:04:38.894Z,68.60
2022-08-20T14:07:31.477Z,67.70
2022-08-20T14:10:06.292Z,64.50
2022-08-20T14:12:34.284Z,66.70
2022-08-20T14:15:01.717Z,65.30
2022-08-20T14:17:30.530Z,66.00
2022-08-20T14:20:02.283Z,65.60
2022-08-20T14:22:30.754Z,64.40
2022-08-20T14:25:02.543Z,64.20
2022-08-20T14:27:31.531Z,64.70
2022-08-20T14:29:59.271Z,65.50
2022-08-20T14:32:26.931Z,66.90
2022-08-20T14:34:54.662Z,67.60
2022-08-20T14:37:23.740Z,68.50
2022-08-20T14:39:52.285Z,69.20
2022-08-20T14:42:22.839Z,68.40
2022-08-20T14:44:50.903Z,67.50
2022-08-20T14:47:20.081Z,66.30
2022-08-20T14:49:48.052Z,65.60
2022-08-20T14:52:16.635Z,65.70
2022-08-20T14:54:44.426Z,66.00
2022-08-20T14:57:13.368Z,65.60
2022-08-20T14:59:41.663Z,65.00
2022-08-20T15:02:09.905Z,65.80
2022-08-20T15:04:37.300Z,66.70
2022-08-20T15:07:08.087Z,66.80
2022-08-20T15:09:40.609Z,68.30
2022-08-20T15:12:08.062Z,70.30
2022-08-20T15:14:35.603Z,69.70
2022-08-20T15:17:06.792Z,69.40
2022-08-20T15:19:35.803Z,69.30
2022-08-20T15:22:03.473Z,68.90
2022-08-20T15:24:30.789Z,69.20
2022-08-20T15:26:58.389Z,70.50
2022-08-20T15:29:25.878Z,71.80
2022-08-20T15:31:53.291Z,73.40
2022-08-20T15:34:20.737Z,73.70
2022-08-20T15:36:48.096Z,75.00
2022-08-20T15:39:15.526Z,75.90
2022-08-20T15:41:42.964Z,76.70
2022-08-20T15:44:10.412Z,76.90
2022-08-20T15:46:39.698Z,78.00
2022-08-20T15:49:11.483Z,78.30
2022-08-20T15:51:43.072Z,78.20
2022-08-20T15:54:30.750Z,78.30
2022-08-20T15:56:58.889Z,78.50
2022-08-20T15:59:45.081Z,79.20
2022-08-20T16:02:25.900Z,79.40
2022-08-20T16:04:56.789Z,79.30
2022-08-20T16:08:00.935Z,79.10
2022-08-20T16:10:37.489Z,78.50
2022-08-20T16:13:09.585Z,78.00
2022-08-20T16:15:39.715Z,78.50
2022-08-20T16:18:24.370Z,78.80
2022-08-20T16:20:53.712Z,79.10
2022-08-20T16:23:26.944Z,80.20
2022-08-20T16:25:57.066Z,79.90
2022-08-20T16:28:26.352Z,79.90
2022-08-20T16:31:02.723Z,80.60
2022-08-20T16:33:30.198Z,80.70
2022-08-20T16:36:11.272Z,81.10
2022-08-20T16:38:56.809Z,81.40
2022-08-20T16:41:47.590Z,81.40
2022-08-20T16:44:21.091Z,81.80
2022-08-20T16:46:54.472Z,81.20
2022-08-20T16:49:22.282Z,81.70
2022-08-20T16:51:52.156Z,82.20
2022-08-20T16:54:28.297Z,82.30
2022-08-20T16:57:00.411Z,83.10
2022-08-20T16:59:28.323Z,83.80
2022-08-20T17:02:01.782Z,83.20
2022-08-20T17:04:36.819Z,83.40
2022-08-20T17:07:04.730Z,83.80
2022-08-20T17:09:43.856Z,84.10
2022-08-20T17:12:22.445Z,84.40
2022-08-20T17:14:52.598Z,84.30
2022-08-20T17:17:25.116Z,84.30
2022-08-20T17:19:57.099Z,84.20
2022-08-20T17:22:25.973Z,84.70
2022-08-20T17:24:53.436Z,85.40
2022-08-20T17:27:32.994Z,85.60
2022-08-20T17:30:22.725Z,85.80
2022-08-20T17:32:57.826Z,86.00
2022-08-20T17:35:40.172Z,86.20
2022-08-20T17:38:10.169Z,86.70
2022-08-20T17:40:47.145Z,87.20
2022-08-20T17:43:28.729Z,87.40
2022-08-20T17:45:58.122Z,87.70
2022-08-20T17:48:33.486Z,87.10
2022-08-20T17:51:05.842Z,87.10
2022-08-20T17:53:35.904Z,87.20
2022-08-20T17:56:13.062Z,87.50
2022-08-20T17:58:52.548Z,87.70
2022-08-20T18:01:23.103Z,87.90
2022-08-20T18:03:51.361Z,88.30
2022-08-20T18:06:34.213Z,88.10
2022-08-20T18:09:10.202Z,88.50
2022-08-20T18:11:52.880Z,88.80
2022-08-20T18:14:29.310Z,89.10
2022-08-20T18:17:08.857Z,89.30
2022-08-20T18:19:54.537Z,90.00
2022-08-20T18:22:27.998Z,90.20
2022-08-20T18:25:07.518Z,90.30
2022-08-20T18:27:42.537Z,90.60
2022-08-20T18:30:21.451Z,90.70
2022-08-20T18:32:50.843Z,90.80
2022-08-20T18:35:33.775Z,90.80
2022-08-20T18:38:26.236Z,91.00
2022-08-20T18:40:55.352Z,91.00
2022-08-20T18:43:26.919Z,91.20
2022-08-20T18:45:54.358Z,91.30
2022-08-20T18:48:23.472Z,91.20
2022-08-20T18:50:55.008Z,91.30
2022-08-20T18:53:30.323Z,91.40
2022-08-20T18:56:13.727Z,91.50
2022-08-20T18:59:02.077Z,91.60
2022-08-20T19:01:31.886Z,91.70
2022-08-20T19:03:59.381Z,91.90
2022-08-20T19:06:26.737Z,92.00
2022-08-20T19:09:06.355Z,92.10
2022-08-20T19:11:45.808Z,92.10
2022-08-20T19:14:19.435Z,92.60
2022-08-20T19:16:57.162Z,92.20
2022-08-20T19:19:28.493Z,92.30
2022-08-20T19:21:59.950Z,92.50
2022-08-20T19:24:32.696Z,92.60
2022-08-20T19:27:02.370Z,93.00
2022-08-20T19:29:32.090Z,93.10
2022-08-20T19:32:00.949Z,93.30
2022-08-20T19:34:28.803Z,93.50
2022-08-20T19:37:10.041Z,93.70
2022-08-20T19:39:50.778Z,93.80
2022-08-20T19:42:29.146Z,93.80
2022-08-20T19:44:58.584Z,93.90
2022-08-20T19:47:29.150Z,94.10
2022-08-20T19:49:56.518Z,94.40
2022-08-20T19:52:29.983Z,94.60
2022-08-20T19:55:02.874Z,94.60
2022-08-20T19:57:31.410Z,94.60
2022-08-20T19:59:58.789Z,94.60
2022-08-20T20:02:28.490Z,94.70
2022-08-20T20:04:58.102Z,94.80
2022-08-20T20:07:35.461Z,95.00
2022-08-20T20:10:05.073Z,95.00
2022-08-20T20:12:33.451Z,95.10
2022-08-20T20:15:01.131Z,95.10
2022-08-20T20:17:34.049Z,95.30
2022-08-20T20:20:14.356Z,95.30
2022-08-20T20:22:50.468Z,95.50
2022-08-20T20:25:18.245Z,95.60
2022-08-20T20:27:48.678Z,95.70
2022-08-20T20:30:20.631Z,95.70
2022-08-20T20:32:49.290Z,95.80
2022-08-20T20:35:25.831Z,95.80
2022-08-20T20:37:58.600Z,95.90
2022-08-20T20:40:27.971Z,96.00
2022-08-20T20:43:06.280Z,96.00
2022-08-20T20:45:38.147Z,96.20
2022-08-20T20:48:19.625Z,96.40
2022-08-20T20:50:47.967Z,96.80
2022-08-20T20:53:40.287Z,96.80
2022-08-20T20:56:25.115Z,97.10
2022-08-20T20:58:55.562Z,97.10
2022-08-20T21:01:27.240Z,97.60
2022-08-20T21:04:11.292Z,97.60
2022-08-20T21:06:39.004Z,97.80
2022-08-20T21:09:06.417Z,98.10
2022-08-20T21:11:33.851Z,98.60
2022-08-20T21:14:01.335Z,98.80
2022-08-20T21:16:29.632Z,98.90
2022-08-20T21:18:58.459Z,99.20
2022-08-20T21:21:25.806Z,99.50
2022-08-20T21:23:53.267Z,99.80
2022-08-20T21:26:20.638Z,99.90
2022-08-20T21:28:48.019Z,99.90
2022-08-20T21:31:15.451Z,99.90
2022-08-20T21:33:43.532Z,99.90
2022-08-20T21:36:10.923Z,99.90
2022-08-20T21:38:38.309Z,99.90
2022-08-20T21:41:05.801Z,99.90
2022-08-20T21:43:33.647Z,99.90
2022-08-20T21:46:03.139Z,99.90
2022-08-20T21:48:30.727Z,99.90
2022-08-20T21:50:58.121Z,99.90
2022-08-20T21:53:25.530Z,99.90
2022-08-20T21:55:53.130Z,99.90
2022-08-20T21:58:20.905Z,99.90
2022-08-20T22:00:52.278Z,99.90
2022-08-20T22:03:20.352Z,99.90
2022-08-20T22:05:47.721Z,99.90
2022-08-20T22:08:15.721Z,99.90
2022-08-20T22:10:43.119Z,99.90
2022-08-20T22:13:10.724Z,99.90
2022-08-20T22:15:39.098Z,99.90
2022-08-20T22:18:06.621Z,99.90
2022-08-20T22:20:34.215Z,99.90
2022-08-20T22:23:03.374Z,99.90
2022-08-20T22:25:31.113Z,99.90
2022-08-20T22:27:58.531Z,99.90
2022-08-20T22:30:26.781Z,99.90
2022-08-20T22:33:02.225Z,99.90
2022-08-20T22:35:30.796Z,99.90
2022-08-20T22:37:58.373Z,99.90
2022-08-20T22:40:25.857Z,99.90
2022-08-20T22:42:53.234Z,99.90
2022-08-20T22:45:20.657Z,99.90
2022-08-20T22:47:48.132Z,99.90
2022-08-20T22:50:16.249Z,99.90
2022-08-20T22:52:45.319Z,99.90
2022-08-20T22:55:13.083Z,99.90
2022-08-20T22:57:40.564Z,99.90
2022-08-20T23:00:11.450Z,99.90
2022-08-20T23:02:40.084Z,99.90
2022-08-20T23:05:08.395Z,99.90
2022-08-20T23:07:35.811Z,99.90
2022-08-20T23:10:03.990Z,99.90
2022-08-20T23:12:31.366Z,99.90
2022-08-20T23:14:58.713Z,99.90
2022-08-20T23:17:26.640Z,99.90
2022-08-20T23:19:54.302Z,99.90
2022-08-20T23:22:22.455Z,99.90
2022-08-20T23:24:50.049Z,99.90
2022-08-20T23:27:18.667Z,99.90
2022-08-20T23:29:46.440Z,99.90
2022-08-20T23:32:14.037Z,99.90
2022-08-20T23:34:41.462Z,99.90
2022-08-20T23:37:09.145Z,99.90
2022-08-20T23:39:37.354Z,99.90
2022-08-20T23:42:04.839Z,99.90
2022-08-20T23:44:32.186Z,99.90
2022-08-20T23:47:01.952Z,99.90
2022-08-20T23:49:29.968Z,99.90
2022-08-20T23:52:00.094Z,99.90
2022-08-20T23:54:28.051Z,99.90
2022-08-20T23:56:57.034Z,99.90
2022-08-20T23:59:25.359Z,99.90
